Weather History for Philadelphia Wings Airport, PA

Change the Weather History Date:

Monday, February 18, 2013

  Actual Average (KPNE) Record (KPNE)
Temperature  
Mean Temperature 28 °F -  
Max Temperature 35 °F 42 °F 69 °F (2011)
Min Temperature 21 °F 26 °F 17 °F (2006)
Degree Days  
Heating Degree Days 37    
Moisture  
Dew Point 10 °F    
Average Humidity 47    
Maximum Humidity 58    
Minimum Humidity 35    
Precipitation  
Precipitation 0.00 in - - ()
Sea Level Pressure  
Sea Level Pressure 30.21 in    
Wind  
Wind Speed 9 mph (West)    
Max Wind Speed 16 mph    
Max Gust Speed 31 mph    
Visibility 10 miles    
Events      
Averages and records for this station are not official NWS values.
T = Trace of Precipitation, MM = Missing Value Source: NWS Daily Summary

Daily Weather History Graph

Daily Weather History Graph

Search for Another Location

Airport:

Trip Planner

Search our weather history database for the weather conditions in past years. The results will help you decide how hot, cold, wet, or windy it might be!

Date:

Astronomy

Feb. 18, 2013 Rise Set
Actual Time 6:49 AM EST 5:40 PM EST
Civil Twilight 6:22 AM EST 6:08 PM EST
Nautical Twilight 5:50 AM EST 6:39 PM EST
Astronomical Twilight 5:19 AM EST 7:11 PM EST
Moon 11:24 AM EST (2/18) 1:27 AM EST (2/18)
Length of Visible Light 11h 46m
Length of Day
10h 50m
First Quarter, 58% of the Moon is Illuminated
Feb 18
First Quarter
Feb 25
Full
Mar 4
Last Quarter
Mar 11
New
Mar 19
First Quarter

Hourly Weather History & Observations

Time (EST) Temp. Windchill Dew Point Humidity Pressure Visibility Wind Dir Wind Speed Gust Speed Precip Events Conditions
12:15 AM 23.0 °F 11.7 °F 5.0 °F 46% 30.08 in 10.0 mi WNW 11.5 mph 19.6 mph N/A   Clear
12:35 AM 23.0 °F 9.6 °F 5.0 °F 46% 30.08 in 10.0 mi WNW 16.1 mph 31.1 mph N/A   Clear
12:55 AM 23.0 °F 10.6 °F 5.0 °F 46% 30.09 in 10.0 mi WNW 13.8 mph 20.7 mph N/A   Clear
1:15 AM 23.0 °F 10.1 °F 5.0 °F 46% 30.09 in 10.0 mi WNW 15.0 mph 27.6 mph N/A   Clear
1:35 AM 23.0 °F 11.1 °F 5.0 °F 46% 30.10 in 10.0 mi WNW 12.7 mph 21.9 mph N/A   Clear
1:55 AM 23.0 °F 10.1 °F 5.0 °F 46% 30.11 in 10.0 mi WNW 15.0 mph 21.9 mph N/A   Clear
2:15 AM 23.0 °F 12.4 °F 5.0 °F 46% 30.11 in 10.0 mi WNW 10.4 mph 28.8 mph N/A   Clear
2:35 AM 21.2 °F 12.6 °F 6.8 °F 54% 30.11 in 10.0 mi WNW 6.9 mph - N/A   Clear
2:55 AM 23.0 °F 18.4 °F 6.8 °F 50% 30.12 in 10.0 mi WNW 3.5 mph - N/A   Clear
3:15 AM 21.2 °F 16.4 °F 8.6 °F 58% 30.13 in 10.0 mi West 3.5 mph - N/A   Clear
3:35 AM 21.2 °F 12.6 °F 8.6 °F 58% 30.13 in 10.0 mi NW 6.9 mph - N/A   Clear
3:55 AM 21.2 °F 12.6 °F 6.8 °F 54% 30.15 in 10.0 mi WNW 6.9 mph 17.3 mph N/A   Clear
4:15 AM 21.2 °F 11.7 °F 8.6 °F 58% 30.16 in 10.0 mi West 8.1 mph - N/A   Clear
4:35 AM 21.2 °F 14.9 °F 8.6 °F 58% 30.17 in 10.0 mi West 4.6 mph - N/A   Clear
4:55 AM 21.2 °F 13.6 °F 8.6 °F 58% 30.18 in 10.0 mi WNW 5.8 mph - N/A   Clear
5:15 AM 21.2 °F 12.6 °F 8.6 °F 58% 30.18 in 10.0 mi WNW 6.9 mph - N/A   Clear
5:35 AM 21.2 °F 10.9 °F 8.6 °F 58% 30.19 in 10.0 mi WNW 9.2 mph - N/A   Clear
5:55 AM 21.2 °F 10.9 °F 8.6 °F 58% 30.20 in 10.0 mi WNW 9.2 mph - N/A   Clear
6:15 AM 21.2 °F 11.7 °F 8.6 °F 58% 30.22 in 10.0 mi WNW 8.1 mph - N/A   Clear
7:15 AM 21.2 °F 12.6 °F 8.6 °F 58% 30.25 in 10.0 mi WNW 6.9 mph - N/A   Clear
7:35 AM 23.0 °F 13.1 °F 8.6 °F 54% 30.25 in 10.0 mi WNW 9.2 mph 17.3 mph N/A   Clear
7:55 AM 23.0 °F 13.1 °F 8.6 °F 54% 30.26 in 10.0 mi WNW 9.2 mph 18.4 mph N/A   Clear
8:15 AM 23.0 °F 15.8 °F 8.6 °F 54% 30.27 in 10.0 mi NW 5.8 mph - N/A   Clear
8:35 AM 24.8 °F 14.6 °F 8.6 °F 50% 30.29 in 10.0 mi NW 10.4 mph 18.4 mph N/A   Clear
8:55 AM 26.6 °F 19.1 °F 8.6 °F 47% 30.29 in 10.0 mi NW 6.9 mph 16.1 mph N/A   Clear
9:15 AM 26.6 °F 18.2 °F 8.6 °F 47% 30.29 in 10.0 mi WNW 8.1 mph - N/A   Clear
9:35 AM 26.6 °F 17.5 °F 8.6 °F 47% 30.30 in 10.0 mi WNW 9.2 mph 18.4 mph N/A   Clear
9:55 AM 28.4 °F 18.5 °F 8.6 °F 43% 30.29 in 10.0 mi WNW 11.5 mph 16.1 mph N/A   Clear
10:15 AM 28.4 °F 18.5 °F 8.6 °F 43% 30.30 in 10.0 mi WNW 11.5 mph 16.1 mph N/A   Clear
10:35 AM 28.4 °F 22.2 °F 8.6 °F 43% 30.31 in 10.0 mi West 5.8 mph 16.1 mph N/A   Clear
10:55 AM 30.2 °F 21.9 °F 8.6 °F 40% 30.31 in 10.0 mi West 9.2 mph 17.3 mph N/A   Clear
11:15 AM 30.2 °F 21.9 °F 10.4 °F 44% 30.31 in 10.0 mi West 9.2 mph 16.1 mph N/A   Clear
11:35 AM 32.0 °F 25.6 °F 10.4 °F 41% 30.30 in 10.0 mi West 6.9 mph - N/A   Clear
11:55 AM 32.0 °F 23.6 °F 10.4 °F 41% 30.29 in 10.0 mi WNW 10.4 mph 17.3 mph N/A   Clear
12:15 PM 32.0 °F 23.6 °F 10.4 °F 41% 30.28 in 10.0 mi WSW 10.4 mph - N/A   Clear
12:35 PM 32.0 °F 25.6 °F 10.4 °F 41% 30.26 in 10.0 mi West 6.9 mph - N/A   Clear
12:55 PM 32.0 °F 24.2 °F 10.4 °F 41% 30.25 in 10.0 mi WNW 9.2 mph - N/A   Clear
1:15 PM 33.8 °F 26.4 °F 10.4 °F 38% 30.24 in 10.0 mi WNW 9.2 mph 18.4 mph N/A   Clear
1:35 PM 33.8 °F 25.3 °F 12.2 °F 41% 30.23 in 10.0 mi WNW 11.5 mph 17.3 mph N/A   Clear
1:55 PM 33.8 °F 25.8 °F 10.4 °F 38% 30.23 in 10.0 mi West 10.4 mph - N/A   Clear
2:15 PM 33.8 °F 28.6 °F 10.4 °F 38% 30.23 in 10.0 mi NW 5.8 mph 16.1 mph N/A   Clear
2:35 PM 35.6 °F 29.2 °F 10.4 °F 35% 30.22 in 10.0 mi West 8.1 mph - N/A   Clear
2:55 PM 35.6 °F 29.2 °F 12.2 °F 38% 30.22 in 10.0 mi WNW 8.1 mph - N/A   Clear
3:15 PM 35.6 °F 29.9 °F 12.2 °F 38% 30.21 in 10.0 mi WSW 6.9 mph - N/A   Clear
3:35 PM 35.6 °F 29.9 °F 14.0 °F 41% 30.22 in 10.0 mi WSW 6.9 mph - N/A   Clear
3:55 PM 35.6 °F 29.9 °F 12.2 °F 38% 30.21 in 10.0 mi West 6.9 mph - N/A   Clear
4:15 PM 35.6 °F 29.2 °F 12.2 °F 38% 30.22 in 10.0 mi West 8.1 mph - N/A   Clear
4:35 PM 35.6 °F 29.2 °F 12.2 °F 38% 30.21 in 10.0 mi WSW 8.1 mph - N/A   Clear
4:55 PM 35.6 °F 29.2 °F 12.2 °F 38% 30.21 in 10.0 mi WSW 8.1 mph - N/A   Clear
5:15 PM 35.6 °F 31.7 °F 12.2 °F 38% 30.21 in 10.0 mi WSW 4.6 mph - N/A   Clear
5:35 PM 33.8 °F 30.8 °F 12.2 °F 41% 30.22 in 10.0 mi WSW 3.5 mph - N/A   Clear
6:15 PM 32.0 °F - 14.0 °F 48% 30.23 in 10.0 mi Calm Calm - N/A   Clear
6:35 PM 32.0 °F - 14.0 °F 48% 30.23 in 10.0 mi Calm Calm - N/A   Clear
6:55 PM 32.0 °F - 12.2 °F 44% 30.23 in 10.0 mi Calm Calm - N/A   Clear
7:15 PM 32.0 °F - 14.0 °F 48% 30.23 in 10.0 mi Calm Calm - N/A   Clear
7:35 PM 32.0 °F - 15.8 °F 51% 30.24 in 10.0 mi Calm Calm - N/A   Clear
7:55 PM 32.0 °F 27.5 °F 14.0 °F 48% 30.23 in 10.0 mi SW 4.6 mph - N/A   Clear
8:15 PM 32.0 °F 27.5 °F 14.0 °F 48% 30.21 in 10.0 mi SSW 4.6 mph - N/A   Clear
8:35 PM 32.0 °F 28.7 °F 14.0 °F 48% 30.22 in 10.0 mi SSW 3.5 mph - N/A   Clear
8:55 PM 32.0 °F 26.4 °F 14.0 °F 48% 30.22 in 10.0 mi SSW 5.8 mph - N/A   Clear
9:15 PM 32.0 °F 26.4 °F 14.0 °F 48% 30.21 in 10.0 mi SW 5.8 mph - N/A   Clear
9:35 PM 32.0 °F 26.4 °F 14.0 °F 48% 30.21 in 10.0 mi SSW 5.8 mph - N/A   Clear
9:55 PM 32.0 °F 28.7 °F 14.0 °F 48% 30.21 in 10.0 mi SW 3.5 mph - N/A   Clear
10:15 PM 32.0 °F 28.7 °F 14.0 °F 48% 30.20 in 10.0 mi SSW 3.5 mph - N/A   Clear
10:35 PM 32.0 °F - 15.8 °F 51% 30.20 in 10.0 mi Calm Calm - N/A   Clear
11:15 PM 32.0 °F 28.7 °F 14.0 °F 48% 30.19 in 10.0 mi South 3.5 mph - N/A   Clear
11:35 PM 32.0 °F - 15.8 °F 51% 30.19 in 10.0 mi Calm Calm - N/A   Clear
11:55 PM 32.0 °F 28.7 °F 17.6 °F 55% 30.18 in 10.0 mi South 3.5 mph - N/A   Clear